sensor_id;sensor_type;location;lat;lon;timestamp;pressure;altitude;pressure_sealevel;temperature;humidity
74868;BME280;63419;42.262;12.210;2023-02-28T00:01:33;59665.06;;;-143.63;100.00
74868;BME280;63419;42.262;12.210;2023-02-28T00:04:01;59665.06;;;-143.63;100.00
74868;BME280;63419;42.262;12.210;2023-02-28T00:06:28;59665.06;;;-143.63;100.00
74868;BME280;63419;42.262;12.210;2023-02-28T00:08:56;59665.06;;;-143.63;100.00
74868;BME280;63419;42.262;12.210;2023-02-28T00:11:23;59665.06;;;-143.63;100.00
74868;BME280;63419;42.262;12.210;2023-02-28T00:13:51;59665.06;;;-143.63;100.00
74868;BME280;63419;42.262;12.210;2023-02-28T00:16:21;59665.06;;;-143.63;100.00
74868;BME280;63419;42.262;12.210;2023-02-28T00:18:50;59665.06;;;-143.63;100.00
74868;BME280;63419;42.262;12.210;2023-02-28T00:21:19;59665.06;;;-143.63;100.00
74868;BME280;63419;42.262;12.210;2023-02-28T00:23:47;59665.06;;;-143.63;100.00
74868;BME280;63419;42.262;12.210;2023-02-28T00:26:15;59665.06;;;-143.63;100.00
74868;BME280;63419;42.262;12.210;2023-02-28T00:28:42;59665.06;;;-143.63;100.00
74868;BME280;63419;42.262;12.210;2023-02-28T00:31:09;59665.06;;;-143.63;100.00
74868;BME280;63419;42.262;12.210;2023-02-28T00:33:36;59665.06;;;-143.63;100.00
74868;BME280;63419;42.262;12.210;2023-02-28T00:36:10;59665.06;;;-143.63;100.00
74868;BME280;63419;42.262;12.210;2023-02-28T00:38:39;59665.06;;;-143.63;100.00
74868;BME280;63419;42.262;12.210;2023-02-28T00:41:08;59665.06;;;-143.63;100.00
74868;BME280;63419;42.262;12.210;2023-02-28T00:43:38;59665.06;;;-143.63;100.00
74868;BME280;63419;42.262;12.210;2023-02-28T00:46:06;59665.06;;;-143.63;100.00
74868;BME280;63419;42.262;12.210;2023-02-28T00:48:34;59665.06;;;-143.63;100.00
74868;BME280;63419;42.262;12.210;2023-02-28T00:51:01;59665.06;;;-143.63;100.00
74868;BME280;63419;42.262;12.210;2023-02-28T00:53:29;59665.06;;;-143.63;100.00
74868;BME280;63419;42.262;12.210;2023-02-28T00:55:57;59665.06;;;-143.63;100.00
74868;BME280;63419;42.262;12.210;2023-02-28T00:58:25;59665.06;;;-143.63;100.00
74868;BME280;63419;42.262;12.210;2023-02-28T01:00:53;59665.06;;;-143.63;100.00
74868;BME280;63419;42.262;12.210;2023-02-28T01:03:22;59665.06;;;-143.63;100.00
74868;BME280;63419;42.262;12.210;2023-02-28T01:05:50;59665.06;;;-143.63;100.00
74868;BME280;63419;42.262;12.210;2023-02-28T01:08:17;59665.06;;;-143.63;100.00
74868;BME280;63419;42.262;12.210;2023-02-28T01:10:45;59665.06;;;-143.63;100.00
74868;BME280;63419;42.262;12.210;2023-02-28T01:13:13;59665.06;;;-143.63;100.00
74868;BME280;63419;42.262;12.210;2023-02-28T01:15:49;59665.06;;;-143.63;100.00
74868;BME280;63419;42.262;12.210;2023-02-28T01:18:18;59665.06;;;-143.63;100.00
74868;BME280;63419;42.262;12.210;2023-02-28T01:20:46;59665.06;;;-143.63;100.00
74868;BME280;63419;42.262;12.210;2023-02-28T01:23:13;59665.06;;;-143.63;100.00
74868;BME280;63419;42.262;12.210;2023-02-28T01:25:41;59665.06;;;-143.63;100.00
74868;BME280;63419;42.262;12.210;2023-02-28T01:28:08;59665.06;;;-143.63;100.00
74868;BME280;63419;42.262;12.210;2023-02-28T01:30:35;59665.06;;;-143.63;100.00
74868;BME280;63419;42.262;12.210;2023-02-28T01:33:03;59665.06;;;-143.63;100.00
74868;BME280;63419;42.262;12.210;2023-02-28T01:35:34;59665.06;;;-143.63;100.00
74868;BME280;63419;42.262;12.210;2023-02-28T01:38:02;59665.06;;;-143.63;100.00
74868;BME280;63419;42.262;12.210;2023-02-28T01:40:47;59665.06;;;-143.63;100.00
74868;BME280;63419;42.262;12.210;2023-02-28T01:43:29;59665.06;;;-143.63;100.00
74868;BME280;63419;42.262;12.210;2023-02-28T01:45:58;59665.06;;;-143.63;100.00
74868;BME280;63419;42.262;12.210;2023-02-28T01:48:32;59665.06;;;-143.63;100.00
74868;BME280;63419;42.262;12.210;2023-02-28T01:51:09;59665.06;;;-143.63;100.00
74868;BME280;63419;42.262;12.210;2023-02-28T01:54:04;59665.06;;;-143.63;100.00
74868;BME280;63419;42.262;12.210;2023-02-28T01:56:36;59665.06;;;-143.63;100.00
74868;BME280;63419;42.262;12.210;2023-02-28T01:59:03;59665.06;;;-143.63;100.00
74868;BME280;63419;42.262;12.210;2023-02-28T02:01:32;59665.06;;;-143.63;100.00
74868;BME280;63419;42.262;12.210;2023-02-28T02:04:03;59665.06;;;-143.63;100.00
74868;BME280;63419;42.262;12.210;2023-02-28T02:06:42;59665.06;;;-143.63;100.00
74868;BME280;63419;42.262;12.210;2023-02-28T02:09:13;59665.06;;;-143.63;100.00
74868;BME280;63419;42.262;12.210;2023-02-28T02:11:47;59665.06;;;-143.63;100.00
74868;BME280;63419;42.262;12.210;2023-02-28T02:14:51;59665.06;;;-143.63;100.00
74868;BME280;63419;42.262;12.210;2023-02-28T02:17:42;59665.06;;;-143.63;100.00
74868;BME280;63419;42.262;12.210;2023-02-28T02:20:38;59665.06;;;-143.63;100.00
74868;BME280;63419;42.262;12.210;2023-02-28T02:23:43;59665.06;;;-143.63;100.00
74868;BME280;63419;42.262;12.210;2023-02-28T02:26:55;59665.06;;;-143.63;100.00
74868;BME280;63419;42.262;12.210;2023-02-28T02:33:18;59665.06;;;-143.63;100.00
74868;BME280;63419;42.262;12.210;2023-02-28T02:41:46;59665.06;;;-143.63;100.00
74868;BME280;63419;42.262;12.210;2023-02-28T02:45:01;59665.06;;;-143.63;100.00
74868;BME280;63419;42.262;12.210;2023-02-28T02:47:42;59665.06;;;-143.63;100.00
74868;BME280;63419;42.262;12.210;2023-02-28T02:50:29;59665.06;;;-143.63;100.00
74868;BME280;63419;42.262;12.210;2023-02-28T02:53:00;59665.06;;;-143.63;100.00
74868;BME280;63419;42.262;12.210;2023-02-28T02:55:34;59665.06;;;-143.63;100.00
74868;BME280;63419;42.262;12.210;2023-02-28T02:58:13;59665.06;;;-143.63;100.00
74868;BME280;63419;42.262;12.210;2023-02-28T03:00:55;59665.06;;;-143.63;100.00
74868;BME280;63419;42.262;12.210;2023-02-28T03:03:31;59665.06;;;-143.63;100.00
74868;BME280;63419;42.262;12.210;2023-02-28T03:06:02;59665.06;;;-143.63;100.00
74868;BME280;63419;42.262;12.210;2023-02-28T03:08:41;59665.06;;;-143.63;100.00
74868;BME280;63419;42.262;12.210;2023-02-28T03:11:14;59665.06;;;-143.63;100.00
74868;BME280;63419;42.262;12.210;2023-02-28T03:17:00;59665.06;;;-143.63;100.00
74868;BME280;63419;42.262;12.210;2023-02-28T03:28:32;59665.06;;;-143.63;100.00
74868;BME280;63419;42.262;12.210;2023-02-28T03:33:57;59665.06;;;-143.63;100.00
74868;BME280;63419;42.262;12.210;2023-02-28T03:36:41;59665.06;;;-143.63;100.00
74868;BME280;63419;42.262;12.210;2023-02-28T03:39:40;59665.06;;;-143.63;100.00
74868;BME280;63419;42.262;12.210;2023-02-28T03:42:21;59665.06;;;-143.63;100.00
74868;BME280;63419;42.262;12.210;2023-02-28T03:45:01;59665.06;;;-143.63;100.00
74868;BME280;63419;42.262;12.210;2023-02-28T03:50:17;59665.06;;;-143.63;100.00
74868;BME280;63419;42.262;12.210;2023-02-28T03:52:56;59665.06;;;-143.63;100.00
74868;BME280;63419;42.262;12.210;2023-02-28T03:56:12;59665.06;;;-143.63;100.00
74868;BME280;63419;42.262;12.210;2023-02-28T03:58:58;59665.06;;;-143.63;100.00
74868;BME280;63419;42.262;12.210;2023-02-28T04:01:42;59665.06;;;-143.63;100.00
74868;BME280;63419;42.262;12.210;2023-02-28T04:04:14;59665.06;;;-143.63;100.00
74868;BME280;63419;42.262;12.210;2023-02-28T04:06:50;59665.06;;;-143.63;100.00
74868;BME280;63419;42.262;12.210;2023-02-28T04:09:33;59665.06;;;-143.63;100.00
74868;BME280;63419;42.262;12.210;2023-02-28T04:12:03;59665.06;;;-143.63;100.00
74868;BME280;63419;42.262;12.210;2023-02-28T04:14:33;59665.06;;;-143.63;100.00
74868;BME280;63419;42.262;12.210;2023-02-28T04:17:11;59665.06;;;-143.63;100.00
74868;BME280;63419;42.262;12.210;2023-02-28T04:19:40;59665.06;;;-143.63;100.00
74868;BME280;63419;42.262;12.210;2023-02-28T04:22:13;59665.06;;;-143.63;100.00
74868;BME280;63419;42.262;12.210;2023-02-28T04:24:43;59665.06;;;-143.63;100.00
74868;BME280;63419;42.262;12.210;2023-02-28T04:27:15;59665.06;;;-143.63;100.00
74868;BME280;63419;42.262;12.210;2023-02-28T04:29:43;59665.06;;;-143.63;100.00
74868;BME280;63419;42.262;12.210;2023-02-28T04:32:12;59665.06;;;-143.63;100.00
74868;BME280;63419;42.262;12.210;2023-02-28T04:34:41;59665.06;;;-143.63;100.00
74868;BME280;63419;42.262;12.210;2023-02-28T04:37:10;59665.06;;;-143.63;100.00
74868;BME280;63419;42.262;12.210;2023-02-28T04:39:44;59665.06;;;-143.63;100.00
74868;BME280;63419;42.262;12.210;2023-02-28T04:42:17;59665.06;;;-143.63;100.00
74868;BME280;63419;42.262;12.210;2023-02-28T04:44:46;59665.06;;;-143.63;100.00
74868;BME280;63419;42.262;12.210;2023-02-28T04:47:15;59665.06;;;-143.63;100.00
74868;BME280;63419;42.262;12.210;2023-02-28T04:49:43;59665.06;;;-143.63;100.00
74868;BME280;63419;42.262;12.210;2023-02-28T04:52:10;59665.06;;;-143.63;100.00
74868;BME280;63419;42.262;12.210;2023-02-28T04:54:38;59665.06;;;-143.63;100.00
74868;BME280;63419;42.262;12.210;2023-02-28T04:57:09;59665.06;;;-143.63;100.00
74868;BME280;63419;42.262;12.210;2023-02-28T04:59:39;59665.06;;;-143.63;100.00
74868;BME280;63419;42.262;12.210;2023-02-28T05:02:10;59665.06;;;-143.63;100.00
74868;BME280;63419;42.262;12.210;2023-02-28T05:04:37;59665.06;;;-143.63;100.00
74868;BME280;63419;42.262;12.210;2023-02-28T05:07:05;59665.06;;;-143.63;100.00
74868;BME280;63419;42.262;12.210;2023-02-28T05:09:32;59665.06;;;-143.63;100.00
74868;BME280;63419;42.262;12.210;2023-02-28T05:12:00;59665.06;;;-143.63;100.00
74868;BME280;63419;42.262;12.210;2023-02-28T05:14:27;59665.06;;;-143.63;100.00
74868;BME280;63419;42.262;12.210;2023-02-28T05:16:55;59665.06;;;-143.63;100.00
74868;BME280;63419;42.262;12.210;2023-02-28T05:19:26;59665.06;;;-143.63;100.00
74868;BME280;63419;42.262;12.210;2023-02-28T05:21:55;59665.06;;;-143.63;100.00
74868;BME280;63419;42.262;12.210;2023-02-28T05:24:24;59665.06;;;-143.63;100.00
74868;BME280;63419;42.262;12.210;2023-02-28T05:26:54;59665.06;;;-143.63;100.00
74868;BME280;63419;42.262;12.210;2023-02-28T05:29:26;59665.06;;;-143.63;100.00
74868;BME280;63419;42.262;12.210;2023-02-28T05:31:53;59665.06;;;-143.63;100.00
74868;BME280;63419;42.262;12.210;2023-02-28T05:34:20;59665.06;;;-143.63;100.00
74868;BME280;63419;42.262;12.210;2023-02-28T05:36:48;59665.06;;;-143.63;100.00
74868;BME280;63419;42.262;12.210;2023-02-28T05:39:20;59665.06;;;-143.63;100.00
74868;BME280;63419;42.262;12.210;2023-02-28T05:41:48;59665.06;;;-143.63;100.00
74868;BME280;63419;42.262;12.210;2023-02-28T05:44:16;59665.06;;;-143.63;100.00
74868;BME280;63419;42.262;12.210;2023-02-28T05:46:43;59665.06;;;-143.63;100.00
74868;BME280;63419;42.262;12.210;2023-02-28T05:49:11;59665.06;;;-143.63;100.00
74868;BME280;63419;42.262;12.210;2023-02-28T05:51:51;59665.06;;;-143.63;100.00
74868;BME280;63419;42.262;12.210;2023-02-28T05:54:18;59665.06;;;-143.63;100.00
74868;BME280;63419;42.262;12.210;2023-02-28T05:56:48;59665.06;;;-143.63;100.00
74868;BME280;63419;42.262;12.210;2023-02-28T05:59:19;59665.06;;;-143.63;100.00
74868;BME280;63419;42.262;12.210;2023-02-28T06:01:57;59665.06;;;-143.63;100.00
74868;BME280;63419;42.262;12.210;2023-02-28T06:04:26;59665.06;;;-143.63;100.00
74868;BME280;63419;42.262;12.210;2023-02-28T06:06:58;59665.06;;;-143.63;100.00
74868;BME280;63419;42.262;12.210;2023-02-28T06:09:25;59665.06;;;-143.63;100.00
74868;BME280;63419;42.262;12.210;2023-02-28T06:11:59;59665.06;;;-143.63;100.00
74868;BME280;63419;42.262;12.210;2023-02-28T06:14:27;59665.06;;;-143.63;100.00
74868;BME280;63419;42.262;12.210;2023-02-28T06:16:55;59665.06;;;-143.63;100.00
74868;BME280;63419;42.262;12.210;2023-02-28T06:19:26;59665.06;;;-143.63;100.00
74868;BME280;63419;42.262;12.210;2023-02-28T06:21:56;59665.06;;;-143.63;100.00
74868;BME280;63419;42.262;12.210;2023-02-28T06:24:26;59665.06;;;-143.63;100.00
74868;BME280;63419;42.262;12.210;2023-02-28T06:26:57;59665.06;;;-143.63;100.00
74868;BME280;63419;42.262;12.210;2023-02-28T06:29:35;59665.06;;;-143.63;100.00
74868;BME280;63419;42.262;12.210;2023-02-28T06:32:11;59665.06;;;-143.63;100.00
74868;BME280;63419;42.262;12.210;2023-02-28T06:34:39;59665.06;;;-143.63;100.00
74868;BME280;63419;42.262;12.210;2023-02-28T06:37:08;59665.06;;;-143.63;100.00
74868;BME280;63419;42.262;12.210;2023-02-28T06:39:38;59665.06;;;-143.63;100.00
74868;BME280;63419;42.262;12.210;2023-02-28T06:42:07;59665.06;;;-143.63;100.00
74868;BME280;63419;42.262;12.210;2023-02-28T06:44:36;59665.06;;;-143.63;100.00
74868;BME280;63419;42.262;12.210;2023-02-28T06:47:09;59665.06;;;-143.63;100.00
74868;BME280;63419;42.262;12.210;2023-02-28T06:49:37;59665.06;;;-143.63;100.00
74868;BME280;63419;42.262;12.210;2023-02-28T06:52:08;59665.06;;;-143.63;100.00
74868;BME280;63419;42.262;12.210;2023-02-28T06:54:37;59665.06;;;-143.63;100.00
74868;BME280;63419;42.262;12.210;2023-02-28T06:57:04;59665.06;;;-143.63;100.00
74868;BME280;63419;42.262;12.210;2023-02-28T06:59:36;59665.06;;;-143.63;100.00
74868;BME280;63419;42.262;12.210;2023-02-28T07:02:08;59665.06;;;-143.63;100.00
74868;BME280;63419;42.262;12.210;2023-02-28T07:04:35;59665.06;;;-143.63;100.00
74868;BME280;63419;42.262;12.210;2023-02-28T07:07:05;59665.06;;;-143.63;100.00
74868;BME280;63419;42.262;12.210;2023-02-28T07:09:35;59665.06;;;-143.63;100.00
74868;BME280;63419;42.262;12.210;2023-02-28T07:12:02;59665.06;;;-143.63;100.00
74868;BME280;63419;42.262;12.210;2023-02-28T07:14:30;59665.06;;;-143.63;100.00
74868;BME280;63419;42.262;12.210;2023-02-28T07:16:58;59665.06;;;-143.63;100.00
74868;BME280;63419;42.262;12.210;2023-02-28T07:19:27;59665.06;;;-143.63;100.00
74868;BME280;63419;42.262;12.210;2023-02-28T07:21:58;59665.06;;;-143.63;100.00
74868;BME280;63419;42.262;12.210;2023-02-28T07:24:32;59665.06;;;-143.63;100.00
74868;BME280;63419;42.262;12.210;2023-02-28T07:27:01;59665.06;;;-143.63;100.00
74868;BME280;63419;42.262;12.210;2023-02-28T07:29:30;59665.06;;;-143.63;100.00
74868;BME280;63419;42.262;12.210;2023-02-28T07:32:00;59665.06;;;-143.63;100.00
74868;BME280;63419;42.262;12.210;2023-02-28T07:34:28;59665.06;;;-143.63;100.00
74868;BME280;63419;42.262;12.210;2023-02-28T07:36:57;59665.06;;;-143.63;100.00
74868;BME280;63419;42.262;12.210;2023-02-28T07:39:27;59665.06;;;-143.63;100.00
74868;BME280;63419;42.262;12.210;2023-02-28T07:41:54;59665.06;;;-143.63;100.00
74868;BME280;63419;42.262;12.210;2023-02-28T07:44:24;59665.06;;;-143.63;100.00
74868;BME280;63419;42.262;12.210;2023-02-28T07:46:53;59665.06;;;-143.63;100.00
74868;BME280;63419;42.262;12.210;2023-02-28T07:49:22;59665.06;;;-143.63;100.00
74868;BME280;63419;42.262;12.210;2023-02-28T07:51:49;59665.06;;;-143.63;100.00
74868;BME280;63419;42.262;12.210;2023-02-28T07:54:19;59665.06;;;-143.63;100.00
74868;BME280;63419;42.262;12.210;2023-02-28T07:56:46;59665.06;;;-143.63;100.00
74868;BME280;63419;42.262;12.210;2023-02-28T07:59:22;59665.06;;;-143.63;100.00
74868;BME280;63419;42.262;12.210;2023-02-28T08:01:57;59665.06;;;-143.63;100.00
74868;BME280;63419;42.262;12.210;2023-02-28T08:04:26;59665.06;;;-143.63;100.00
74868;BME280;63419;42.262;12.210;2023-02-28T08:06:57;59665.06;;;-143.63;100.00
74868;BME280;63419;42.262;12.210;2023-02-28T08:09:30;59665.06;;;-143.63;100.00
74868;BME280;63419;42.262;12.210;2023-02-28T08:12:00;59665.06;;;-143.63;100.00
74868;BME280;63419;42.262;12.210;2023-02-28T08:14:30;59665.06;;;-143.63;100.00
74868;BME280;63419;42.262;12.210;2023-02-28T08:16:58;59665.06;;;-143.63;100.00
74868;BME280;63419;42.262;12.210;2023-02-28T08:19:33;59665.06;;;-143.63;100.00
74868;BME280;63419;42.262;12.210;2023-02-28T08:22:01;97240.16;;;12.24;100.00
74868;BME280;63419;42.262;12.210;2023-02-28T08:24:30;59665.06;;;-143.63;100.00
74868;BME280;63419;42.262;12.210;2023-02-28T08:26:58;97238.31;;;12.24;100.00
74868;BME280;63419;42.262;12.210;2023-02-28T08:29:27;97237.91;;;12.26;100.00
74868;BME280;63419;42.262;12.210;2023-02-28T08:31:56;97237.34;;;12.35;100.00
74868;BME280;63419;42.262;12.210;2023-02-28T08:34:24;97236.22;;;12.43;100.00
74868;BME280;63419;42.262;12.210;2023-02-28T08:36:52;97235.75;;;12.46;100.00
74868;BME280;63419;42.262;12.210;2023-02-28T08:39:21;97234.31;;;12.52;100.00
74868;BME280;63419;42.262;12.210;2023-02-28T08:42:02;97234.56;;;12.55;100.00
74868;BME280;63419;42.262;12.210;2023-02-28T08:44:34;59665.06;;;-143.63;100.00
74868;BME280;63419;42.262;12.210;2023-02-28T08:47:05;97234.59;;;12.62;100.00
74868;BME280;63419;42.262;12.210;2023-02-28T08:49:35;97233.25;;;12.75;100.00
74868;BME280;63419;42.262;12.210;2023-02-28T08:52:06;97233.03;;;12.93;100.00
74868;BME280;63419;42.262;12.210;2023-02-28T08:54:33;97232.69;;;13.16;100.00
74868;BME280;63419;42.262;12.210;2023-02-28T08:57:03;97232.53;;;13.31;100.00
74868;BME280;63419;42.262;12.210;2023-02-28T08:59:30;97232.84;;;13.46;100.00
74868;BME280;63419;42.262;12.210;2023-02-28T09:01:57;97232.03;;;13.60;100.00
74868;BME280;63419;42.262;12.210;2023-02-28T09:04:25;97232.63;;;13.73;100.00
74868;BME280;63419;42.262;12.210;2023-02-28T09:06:56;97232.06;;;13.84;100.00
74868;BME280;63419;42.262;12.210;2023-02-28T09:09:26;97231.88;;;14.03;100.00
74868;BME280;63419;42.262;12.210;2023-02-28T09:11:57;97231.47;;;14.17;100.00
74868;BME280;63419;42.262;12.210;2023-02-28T09:14:24;97230.59;;;14.36;100.00
74868;BME280;63419;42.262;12.210;2023-02-28T09:16:53;97229.47;;;14.47;100.00
74868;BME280;63419;42.262;12.210;2023-02-28T09:19:24;97228.78;;;14.50;100.00
74868;BME280;63419;42.262;12.210;2023-02-28T09:21:54;97228.63;;;14.61;100.00
74868;BME280;63419;42.262;12.210;2023-02-28T09:24:21;97228.09;;;14.63;100.00
74868;BME280;63419;42.262;12.210;2023-02-28T09:26:50;97228.09;;;14.76;100.00
74868;BME280;63419;42.262;12.210;2023-02-28T09:29:31;97227.78;;;14.76;100.00
74868;BME280;63419;42.262;12.210;2023-02-28T09:31:58;97228.22;;;14.84;100.00
74868;BME280;63419;42.262;12.210;2023-02-28T09:34:28;97228.28;;;14.91;100.00
74868;BME280;63419;42.262;12.210;2023-02-28T09:37:00;97227.97;;;14.93;100.00
74868;BME280;63419;42.262;12.210;2023-02-28T09:39:35;97229.31;;;15.08;100.00
74868;BME280;63419;42.262;12.210;2023-02-28T09:42:03;97228.97;;;15.11;100.00
74868;BME280;63419;42.262;12.210;2023-02-28T09:44:42;97227.53;;;15.21;100.00
74868;BME280;63419;42.262;12.210;2023-02-28T09:47:34;97227.03;;;15.28;100.00
74868;BME280;63419;42.262;12.210;2023-02-28T09:52:55;97225.13;;;15.55;100.00
74868;BME280;63419;42.262;12.210;2023-02-28T09:56:01;97223.72;;;15.72;100.00
74868;BME280;63419;42.262;12.210;2023-02-28T10:01:43;97220.81;;;15.93;100.00
74868;BME280;63419;42.262;12.210;2023-02-28T10:04:46;97216.66;;;16.02;100.00
74868;BME280;63419;42.262;12.210;2023-02-28T10:07:56;97213.94;;;16.18;100.00
74868;BME280;63419;42.262;12.210;2023-02-28T10:13:53;97209.06;;;16.41;100.00
74868;BME280;63419;42.262;12.210;2023-02-28T10:16:53;97206.03;;;16.59;100.00
74868;BME280;63419;42.262;12.210;2023-02-28T10:22:34;97201.16;;;17.10;100.00
74868;BME280;63419;42.262;12.210;2023-02-28T10:25:29;97198.63;;;17.37;100.00
74868;BME280;63419;42.262;12.210;2023-02-28T10:30:42;97194.22;;;17.55;100.00
74868;BME280;63419;42.262;12.210;2023-02-28T10:33:25;97191.28;;;17.72;100.00
74868;BME280;63419;42.262;12.210;2023-02-28T10:35:59;97189.88;;;17.85;100.00
74868;BME280;63419;42.262;12.210;2023-02-28T10:38:34;97188.00;;;17.89;100.00
74868;BME280;63419;42.262;12.210;2023-02-28T10:41:12;97186.41;;;18.05;100.00
74868;BME280;63419;42.262;12.210;2023-02-28T10:46:43;97182.00;;;18.32;100.00
74868;BME280;63419;42.262;12.210;2023-02-28T10:49:27;97179.59;;;18.40;100.00
74868;BME280;63419;42.262;12.210;2023-02-28T10:51:59;97176.75;;;18.46;100.00
74868;BME280;63419;42.262;12.210;2023-02-28T10:54:36;97174.47;;;18.48;100.00
74868;BME280;63419;42.262;12.210;2023-02-28T10:57:22;97172.84;;;18.45;100.00
74868;BME280;63419;42.262;12.210;2023-02-28T11:00:19;97171.31;;;18.49;100.00
74868;BME280;63419;42.262;12.210;2023-02-28T11:02:48;97170.03;;;18.54;100.00
74868;BME280;63419;42.262;12.210;2023-02-28T11:05:32;97166.19;;;18.73;100.00
74868;BME280;63419;42.262;12.210;2023-02-28T11:08:12;97164.88;;;18.88;100.00
74868;BME280;63419;42.262;12.210;2023-02-28T11:10:48;97163.88;;;19.06;100.00
74868;BME280;63419;42.262;12.210;2023-02-28T11:13:32;97161.28;;;19.20;100.00
74868;BME280;63419;42.262;12.210;2023-02-28T11:16:09;97160.47;;;19.30;100.00
74868;BME280;63419;42.262;12.210;2023-02-28T11:18:47;97160.22;;;19.41;100.00
74868;BME280;63419;42.262;12.210;2023-02-28T11:21:27;97156.97;;;19.63;100.00
74868;BME280;63419;42.262;12.210;2023-02-28T11:24:17;97155.59;;;19.76;100.00
74868;BME280;63419;42.262;12.210;2023-02-28T11:26:53;97152.97;;;19.91;100.00
74868;BME280;63419;42.262;12.210;2023-02-28T11:29:29;97150.91;;;20.06;100.00
74868;BME280;63419;42.262;12.210;2023-02-28T11:32:21;97148.63;;;20.04;100.00
74868;BME280;63419;42.262;12.210;2023-02-28T11:35:29;97146.13;;;20.14;100.00
74868;BME280;63419;42.262;12.210;2023-02-28T11:37:59;97142.59;;;20.45;99.70
74868;BME280;63419;42.262;12.210;2023-02-28T11:51:32;97125.63;;;21.16;99.45
74868;BME280;63419;42.262;12.210;2023-02-28T11:54:27;97122.69;;;21.06;99.80
74868;BME280;63419;42.262;12.210;2023-02-28T12:02:54;97112.75;;;21.22;83.19
74868;BME280;63419;42.262;12.210;2023-02-28T12:14:16;97099.31;;;20.94;90.71
74868;BME280;63419;42.262;12.210;2023-02-28T12:31:41;97084.56;;;19.92;100.00
74868;BME280;63419;42.262;12.210;2023-02-28T12:34:27;97083.28;;;19.78;100.00
74868;BME280;63419;42.262;12.210;2023-02-28T12:37:01;97081.41;;;19.77;100.00
74868;BME280;63419;42.262;12.210;2023-02-28T12:39:44;97079.09;;;19.93;93.66
74868;BME280;63419;42.262;12.210;2023-02-28T12:42:33;97077.41;;;20.01;93.02
74868;BME280;63419;42.262;12.210;2023-02-28T12:45:19;97075.38;;;20.24;79.38
74868;BME280;63419;42.262;12.210;2023-02-28T12:48:04;97073.19;;;20.57;81.75
74868;BME280;63419;42.262;12.210;2023-02-28T12:50:35;97070.78;;;20.73;80.54
74868;BME280;63419;42.262;12.210;2023-02-28T12:56:57;97066.94;;;20.81;89.44
74868;BME280;63419;42.262;12.210;2023-02-28T13:00:28;97065.06;;;20.65;96.51
74868;BME280;63419;42.262;12.210;2023-02-28T13:05:56;97060.78;;;20.33;100.00
74868;BME280;63419;42.262;12.210;2023-02-28T13:11:53;97056.81;;;20.24;100.00
74868;BME280;63419;42.262;12.210;2023-02-28T13:19:45;97047.34;;;20.33;95.15
74868;BME280;63419;42.262;12.210;2023-02-28T13:24:55;97042.69;;;20.45;93.19
74868;BME280;63419;42.262;12.210;2023-02-28T13:27:40;97039.28;;;20.43;98.56
74868;BME280;63419;42.262;12.210;2023-02-28T13:36:32;97030.38;;;20.19;100.00
74868;BME280;63419;42.262;12.210;2023-02-28T13:42:35;97024.91;;;20.19;98.50
74868;BME280;63419;42.262;12.210;2023-02-28T14:05:12;97026.41;;;18.15;100.00
74868;BME280;63419;42.262;12.210;2023-02-28T14:07:53;97027.44;;;17.80;100.00
74868;BME280;63419;42.262;12.210;2023-02-28T14:10:40;97028.25;;;17.55;100.00
74868;BME280;63419;42.262;12.210;2023-02-28T14:13:45;97028.19;;;17.45;100.00
74868;BME280;63419;42.262;12.210;2023-02-28T14:16:23;97027.88;;;17.18;100.00
74868;BME280;63419;42.262;12.210;2023-02-28T14:19:02;97027.97;;;17.01;100.00
74868;BME280;63419;42.262;12.210;2023-02-28T14:36:36;97036.19;;;16.23;100.00
74868;BME280;63419;42.262;12.210;2023-02-28T14:39:14;97038.44;;;16.20;100.00
74868;BME280;63419;42.262;12.210;2023-02-28T14:41:48;97040.41;;;16.12;100.00
74868;BME280;63419;42.262;12.210;2023-02-28T14:44:27;97040.84;;;16.09;100.00
74868;BME280;63419;42.262;12.210;2023-02-28T14:47:04;97040.50;;;16.07;100.00
74868;BME280;63419;42.262;12.210;2023-02-28T14:49:47;97039.00;;;16.00;100.00
74868;BME280;63419;42.262;12.210;2023-02-28T14:52:20;97037.09;;;15.97;100.00
74868;BME280;63419;42.262;12.210;2023-02-28T14:55:06;97034.56;;;16.01;100.00
74868;BME280;63419;42.262;12.210;2023-02-28T14:57:55;97032.66;;;15.86;100.00
74868;BME280;63419;42.262;12.210;2023-02-28T15:00:29;97031.34;;;15.77;100.00
74868;BME280;63419;42.262;12.210;2023-02-28T15:03:13;97029.28;;;15.82;100.00
74868;BME280;63419;42.262;12.210;2023-02-28T15:05:57;97026.97;;;15.86;100.00
74868;BME280;63419;42.262;12.210;2023-02-28T15:08:27;97025.03;;;15.86;100.00
74868;BME280;63419;42.262;12.210;2023-02-28T15:13:48;97020.56;;;15.99;100.00
74868;BME280;63419;42.262;12.210;2023-02-28T15:16:39;97018.31;;;15.96;100.00
74868;BME280;63419;42.262;12.210;2023-02-28T15:19:29;97015.31;;;15.96;100.00
74868;BME280;63419;42.262;12.210;2023-02-28T15:22:13;97012.53;;;15.88;100.00
74868;BME280;63419;42.262;12.210;2023-02-28T15:24:50;97010.81;;;15.87;100.00
74868;BME280;63419;42.262;12.210;2023-02-28T15:27:29;97008.94;;;15.80;100.00
74868;BME280;63419;42.262;12.210;2023-02-28T15:30:34;97006.16;;;15.78;100.00
74868;BME280;63419;42.262;12.210;2023-02-28T15:35:41;97001.03;;;15.61;100.00
74868;BME280;63419;42.262;12.210;2023-02-28T15:38:24;96998.72;;;15.59;100.00
74868;BME280;63419;42.262;12.210;2023-02-28T15:40:58;96996.75;;;15.47;100.00